sensor_id;sensor_type;location;lat;lon;timestamp;temperature;humidity
21666;DHT22;10994;45.486;9.190;2023-01-20T00:01:37;6.50;99.90
21666;DHT22;10994;45.486;9.190;2023-01-20T00:04:03;6.50;99.90
21666;DHT22;10994;45.486;9.190;2023-01-20T00:06:30;6.40;99.90
21666;DHT22;10994;45.486;9.190;2023-01-20T00:08:58;6.20;99.90
21666;DHT22;10994;45.486;9.190;2023-01-20T00:11:25;6.10;99.90
21666;DHT22;10994;45.486;9.190;2023-01-20T00:13:54;6.10;99.90
21666;DHT22;10994;45.486;9.190;2023-01-20T00:16:20;6.10;99.90
21666;DHT22;10994;45.486;9.190;2023-01-20T00:18:46;6.30;99.90
21666;DHT22;10994;45.486;9.190;2023-01-20T00:21:13;6.30;99.90
21666;DHT22;10994;45.486;9.190;2023-01-20T00:23:41;6.30;99.90
21666;DHT22;10994;45.486;9.190;2023-01-20T00:26:12;6.30;99.90
21666;DHT22;10994;45.486;9.190;2023-01-20T00:28:38;6.40;99.90
21666;DHT22;10994;45.486;9.190;2023-01-20T00:31:24;6.40;99.90
21666;DHT22;10994;45.486;9.190;2023-01-20T00:33:51;6.40;99.90
21666;DHT22;10994;45.486;9.190;2023-01-20T00:36:19;6.20;99.90
21666;DHT22;10994;45.486;9.190;2023-01-20T00:38:45;6.00;99.90
21666;DHT22;10994;45.486;9.190;2023-01-20T00:41:11;5.90;99.90
21666;DHT22;10994;45.486;9.190;2023-01-20T00:43:37;6.00;99.90
21666;DHT22;10994;45.486;9.190;2023-01-20T00:46:03;6.00;99.90
21666;DHT22;10994;45.486;9.190;2023-01-20T00:48:29;5.90;99.90
21666;DHT22;10994;45.486;9.190;2023-01-20T00:50:55;5.80;99.90
21666;DHT22;10994;45.486;9.190;2023-01-20T00:53:21;5.80;99.90
21666;DHT22;10994;45.486;9.190;2023-01-20T00:55:47;5.80;99.90
21666;DHT22;10994;45.486;9.190;2023-01-20T00:58:12;5.80;99.90
21666;DHT22;10994;45.486;9.190;2023-01-20T01:00:38;5.70;99.90
21666;DHT22;10994;45.486;9.190;2023-01-20T01:03:04;5.70;99.90
21666;DHT22;10994;45.486;9.190;2023-01-20T01:05:31;5.60;99.90
21666;DHT22;10994;45.486;9.190;2023-01-20T01:07:56;5.60;99.90
21666;DHT22;10994;45.486;9.190;2023-01-20T01:10:22;5.70;99.90
21666;DHT22;10994;45.486;9.190;2023-01-20T01:12:48;5.80;99.90
21666;DHT22;10994;45.486;9.190;2023-01-20T01:15:13;5.90;99.90
21666;DHT22;10994;45.486;9.190;2023-01-20T01:17:41;6.00;99.90
21666;DHT22;10994;45.486;9.190;2023-01-20T01:20:10;6.00;99.90
21666;DHT22;10994;45.486;9.190;2023-01-20T01:22:35;5.80;99.90
21666;DHT22;10994;45.486;9.190;2023-01-20T01:25:01;5.70;99.90
21666;DHT22;10994;45.486;9.190;2023-01-20T01:27:28;5.50;99.90
21666;DHT22;10994;45.486;9.190;2023-01-20T01:29:54;5.60;99.90
21666;DHT22;10994;45.486;9.190;2023-01-20T01:32:20;5.80;99.90
21666;DHT22;10994;45.486;9.190;2023-01-20T01:34:46;5.80;99.90
21666;DHT22;10994;45.486;9.190;2023-01-20T01:37:12;5.80;99.90
21666;DHT22;10994;45.486;9.190;2023-01-20T01:39:37;6.00;99.90
21666;DHT22;10994;45.486;9.190;2023-01-20T01:42:12;6.00;99.90
21666;DHT22;10994;45.486;9.190;2023-01-20T01:50:18;6.20;99.90
21666;DHT22;10994;45.486;9.190;2023-01-20T01:52:47;6.20;99.90
21666;DHT22;10994;45.486;9.190;2023-01-20T01:55:15;6.30;99.90
21666;DHT22;10994;45.486;9.190;2023-01-20T01:57:41;6.20;99.90
21666;DHT22;10994;45.486;9.190;2023-01-20T02:00:08;6.30;99.90
21666;DHT22;10994;45.486;9.190;2023-01-20T02:02:39;6.20;99.90
21666;DHT22;10994;45.486;9.190;2023-01-20T02:05:06;6.20;99.90
21666;DHT22;10994;45.486;9.190;2023-01-20T02:07:32;6.20;99.90
21666;DHT22;10994;45.486;9.190;2023-01-20T02:10:00;6.30;99.90
21666;DHT22;10994;45.486;9.190;2023-01-20T02:12:25;6.30;99.90
21666;DHT22;10994;45.486;9.190;2023-01-20T02:14:54;6.20;99.90
21666;DHT22;10994;45.486;9.190;2023-01-20T02:26:07;6.30;99.90
21666;DHT22;10994;45.486;9.190;2023-01-20T02:37:17;6.40;99.90
21666;DHT22;10994;45.486;9.190;2023-01-20T02:40:16;6.40;99.90
21666;DHT22;10994;45.486;9.190;2023-01-20T02:43:08;6.30;99.90
21666;DHT22;10994;45.486;9.190;2023-01-20T02:45:45;6.40;99.90
21666;DHT22;10994;45.486;9.190;2023-01-20T02:51:08;6.20;99.90
21666;DHT22;10994;45.486;9.190;2023-01-20T02:53:52;6.10;99.90
21666;DHT22;10994;45.486;9.190;2023-01-20T02:56:21;6.00;99.90
21666;DHT22;10994;45.486;9.190;2023-01-20T02:58:57;6.10;99.90
21666;DHT22;10994;45.486;9.190;2023-01-20T03:01:55;6.00;99.90
21666;DHT22;10994;45.486;9.190;2023-01-20T03:04:26;6.00;99.90
21666;DHT22;10994;45.486;9.190;2023-01-20T03:06:54;6.00;99.90
21666;DHT22;10994;45.486;9.190;2023-01-20T03:09:44;5.90;99.90
21666;DHT22;10994;45.486;9.190;2023-01-20T03:12:15;5.90;99.90
21666;DHT22;10994;45.486;9.190;2023-01-20T03:14:42;5.80;99.90
21666;DHT22;10994;45.486;9.190;2023-01-20T03:17:08;5.60;99.90
21666;DHT22;10994;45.486;9.190;2023-01-20T03:19:34;5.70;99.90
21666;DHT22;10994;45.486;9.190;2023-01-20T03:22:00;5.60;99.90
21666;DHT22;10994;45.486;9.190;2023-01-20T03:24:28;5.50;99.90
21666;DHT22;10994;45.486;9.190;2023-01-20T03:26:55;5.60;99.90
21666;DHT22;10994;45.486;9.190;2023-01-20T03:29:21;5.70;99.90
21666;DHT22;10994;45.486;9.190;2023-01-20T03:31:58;5.90;99.90
21666;DHT22;10994;45.486;9.190;2023-01-20T03:34:25;6.00;99.90
21666;DHT22;10994;45.486;9.190;2023-01-20T03:36:52;6.00;99.90
21666;DHT22;10994;45.486;9.190;2023-01-20T03:39:19;6.10;99.90
21666;DHT22;10994;45.486;9.190;2023-01-20T03:55:29;5.90;99.90
21666;DHT22;10994;45.486;9.190;2023-01-20T03:58:06;6.00;99.90
21666;DHT22;10994;45.486;9.190;2023-01-20T04:00:35;5.90;99.90
21666;DHT22;10994;45.486;9.190;2023-01-20T04:03:08;5.90;99.90
21666;DHT22;10994;45.486;9.190;2023-01-20T04:05:37;5.90;99.90
21666;DHT22;10994;45.486;9.190;2023-01-20T04:08:06;6.00;99.90
21666;DHT22;10994;45.486;9.190;2023-01-20T04:10:35;6.00;99.90
21666;DHT22;10994;45.486;9.190;2023-01-20T04:13:03;6.10;99.90
21666;DHT22;10994;45.486;9.190;2023-01-20T04:15:40;6.10;99.90
21666;DHT22;10994;45.486;9.190;2023-01-20T04:20:36;6.00;99.90
21666;DHT22;10994;45.486;9.190;2023-01-20T04:23:02;6.00;99.90
21666;DHT22;10994;45.486;9.190;2023-01-20T04:25:30;6.00;99.90
21666;DHT22;10994;45.486;9.190;2023-01-20T04:27:56;5.90;99.90
21666;DHT22;10994;45.486;9.190;2023-01-20T04:30:21;6.00;99.90
21666;DHT22;10994;45.486;9.190;2023-01-20T04:32:47;6.00;99.90
21666;DHT22;10994;45.486;9.190;2023-01-20T04:35:16;6.00;99.90
21666;DHT22;10994;45.486;9.190;2023-01-20T04:37:41;6.00;99.90
21666;DHT22;10994;45.486;9.190;2023-01-20T04:40:08;6.00;99.90
21666;DHT22;10994;45.486;9.190;2023-01-20T04:42:34;5.90;99.90
21666;DHT22;10994;45.486;9.190;2023-01-20T04:45:00;6.00;99.90
21666;DHT22;10994;45.486;9.190;2023-01-20T04:47:29;5.90;99.90
21666;DHT22;10994;45.486;9.190;2023-01-20T04:49:54;5.80;99.90
21666;DHT22;10994;45.486;9.190;2023-01-20T04:52:20;5.80;99.90
21666;DHT22;10994;45.486;9.190;2023-01-20T04:54:46;5.80;99.90
21666;DHT22;10994;45.486;9.190;2023-01-20T04:57:11;5.90;99.90
21666;DHT22;10994;45.486;9.190;2023-01-20T04:59:37;5.90;99.90
21666;DHT22;10994;45.486;9.190;2023-01-20T05:02:03;5.90;99.90
21666;DHT22;10994;45.486;9.190;2023-01-20T05:04:28;5.80;99.90
21666;DHT22;10994;45.486;9.190;2023-01-20T05:06:54;5.70;99.90
21666;DHT22;10994;45.486;9.190;2023-01-20T05:09:20;5.70;99.90
21666;DHT22;10994;45.486;9.190;2023-01-20T05:11:45;5.70;99.90
21666;DHT22;10994;45.486;9.190;2023-01-20T05:14:11;5.60;99.90
21666;DHT22;10994;45.486;9.190;2023-01-20T05:16:37;5.60;99.90
21666;DHT22;10994;45.486;9.190;2023-01-20T05:19:03;5.60;99.90
21666;DHT22;10994;45.486;9.190;2023-01-20T05:21:29;5.50;99.90
21666;DHT22;10994;45.486;9.190;2023-01-20T05:23:56;5.40;99.90
21666;DHT22;10994;45.486;9.190;2023-01-20T05:26:22;5.40;99.90
21666;DHT22;10994;45.486;9.190;2023-01-20T05:28:48;5.30;99.90
21666;DHT22;10994;45.486;9.190;2023-01-20T05:31:13;5.40;99.90
21666;DHT22;10994;45.486;9.190;2023-01-20T05:33:39;5.40;99.90
21666;DHT22;10994;45.486;9.190;2023-01-20T05:36:06;5.30;99.90
21666;DHT22;10994;45.486;9.190;2023-01-20T05:38:31;5.10;99.90
21666;DHT22;10994;45.486;9.190;2023-01-20T05:40:59;5.10;99.90
21666;DHT22;10994;45.486;9.190;2023-01-20T05:43:25;5.10;99.90
21666;DHT22;10994;45.486;9.190;2023-01-20T05:45:50;5.20;99.90
21666;DHT22;10994;45.486;9.190;2023-01-20T05:48:16;5.10;99.90
21666;DHT22;10994;45.486;9.190;2023-01-20T05:50:41;5.10;99.90
21666;DHT22;10994;45.486;9.190;2023-01-20T05:53:07;5.20;99.90
21666;DHT22;10994;45.486;9.190;2023-01-20T05:55:33;5.20;99.90
21666;DHT22;10994;45.486;9.190;2023-01-20T05:58:02;5.30;99.90
21666;DHT22;10994;45.486;9.190;2023-01-20T06:00:28;5.40;99.90
21666;DHT22;10994;45.486;9.190;2023-01-20T06:02:54;5.40;99.90
21666;DHT22;10994;45.486;9.190;2023-01-20T06:05:20;5.40;99.90
21666;DHT22;10994;45.486;9.190;2023-01-20T06:07:46;5.20;99.90
21666;DHT22;10994;45.486;9.190;2023-01-20T06:10:14;5.20;99.90
21666;DHT22;10994;45.486;9.190;2023-01-20T06:12:40;5.20;99.90
21666;DHT22;10994;45.486;9.190;2023-01-20T06:15:06;5.30;99.90
21666;DHT22;10994;45.486;9.190;2023-01-20T06:17:32;5.20;99.90
21666;DHT22;10994;45.486;9.190;2023-01-20T06:19:58;5.20;99.90
21666;DHT22;10994;45.486;9.190;2023-01-20T06:22:25;5.20;99.90
21666;DHT22;10994;45.486;9.190;2023-01-20T06:24:51;5.20;99.90
21666;DHT22;10994;45.486;9.190;2023-01-20T06:27:18;5.40;99.90
21666;DHT22;10994;45.486;9.190;2023-01-20T06:29:45;5.40;99.90
21666;DHT22;10994;45.486;9.190;2023-01-20T06:32:12;5.60;99.90
21666;DHT22;10994;45.486;9.190;2023-01-20T06:34:40;5.70;99.90
21666;DHT22;10994;45.486;9.190;2023-01-20T06:37:06;5.60;99.90
21666;DHT22;10994;45.486;9.190;2023-01-20T06:39:32;5.40;99.90
21666;DHT22;10994;45.486;9.190;2023-01-20T06:41:58;5.30;99.90
21666;DHT22;10994;45.486;9.190;2023-01-20T06:44:25;5.30;99.90
21666;DHT22;10994;45.486;9.190;2023-01-20T06:46:51;5.50;99.90
21666;DHT22;10994;45.486;9.190;2023-01-20T06:49:17;5.60;99.90
21666;DHT22;10994;45.486;9.190;2023-01-20T06:51:43;5.50;99.90
21666;DHT22;10994;45.486;9.190;2023-01-20T06:54:09;5.40;99.90
21666;DHT22;10994;45.486;9.190;2023-01-20T06:56:35;5.40;99.90
21666;DHT22;10994;45.486;9.190;2023-01-20T06:59:01;5.40;99.90
21666;DHT22;10994;45.486;9.190;2023-01-20T07:01:29;5.30;99.90
21666;DHT22;10994;45.486;9.190;2023-01-20T07:04:01;5.30;99.90
21666;DHT22;10994;45.486;9.190;2023-01-20T07:06:36;5.20;99.90
21666;DHT22;10994;45.486;9.190;2023-01-20T07:09:08;5.20;99.90
21666;DHT22;10994;45.486;9.190;2023-01-20T07:11:34;5.20;99.90
21666;DHT22;10994;45.486;9.190;2023-01-20T07:14:02;5.20;99.90
21666;DHT22;10994;45.486;9.190;2023-01-20T07:16:28;5.30;99.90
21666;DHT22;10994;45.486;9.190;2023-01-20T07:18:54;5.20;99.90
21666;DHT22;10994;45.486;9.190;2023-01-20T07:21:20;5.30;99.90
21666;DHT22;10994;45.486;9.190;2023-01-20T07:23:47;5.40;99.90
21666;DHT22;10994;45.486;9.190;2023-01-20T07:26:14;5.50;99.90
21666;DHT22;10994;45.486;9.190;2023-01-20T07:28:41;5.50;99.90
21666;DHT22;10994;45.486;9.190;2023-01-20T07:31:11;5.50;99.90
21666;DHT22;10994;45.486;9.190;2023-01-20T07:33:42;5.50;99.90
21666;DHT22;10994;45.486;9.190;2023-01-20T07:36:08;5.50;99.90
21666;DHT22;10994;45.486;9.190;2023-01-20T07:38:34;5.60;99.90
21666;DHT22;10994;45.486;9.190;2023-01-20T07:41:03;5.50;99.90
21666;DHT22;10994;45.486;9.190;2023-01-20T07:43:29;5.40;99.90
21666;DHT22;10994;45.486;9.190;2023-01-20T07:46:00;5.40;99.90
21666;DHT22;10994;45.486;9.190;2023-01-20T07:48:28;5.60;99.90
21666;DHT22;10994;45.486;9.190;2023-01-20T07:50:58;5.60;99.90
21666;DHT22;10994;45.486;9.190;2023-01-20T07:53:32;5.60;99.90
21666;DHT22;10994;45.486;9.190;2023-01-20T07:56:06;5.70;99.90
21666;DHT22;10994;45.486;9.190;2023-01-20T07:58:33;5.80;99.90
21666;DHT22;10994;45.486;9.190;2023-01-20T08:01:07;5.90;99.90
21666;DHT22;10994;45.486;9.190;2023-01-20T08:03:34;6.00;99.90
21666;DHT22;10994;45.486;9.190;2023-01-20T08:06:08;6.10;99.90
21666;DHT22;10994;45.486;9.190;2023-01-20T08:08:34;6.00;99.90
21666;DHT22;10994;45.486;9.190;2023-01-20T08:11:02;6.00;99.90
21666;DHT22;10994;45.486;9.190;2023-01-20T08:13:28;6.00;99.90
21666;DHT22;10994;45.486;9.190;2023-01-20T08:15:58;6.00;99.90
21666;DHT22;10994;45.486;9.190;2023-01-20T08:18:24;6.10;99.90
21666;DHT22;10994;45.486;9.190;2023-01-20T08:20:49;6.10;99.90
21666;DHT22;10994;45.486;9.190;2023-01-20T08:23:15;6.10;99.90
21666;DHT22;10994;45.486;9.190;2023-01-20T08:25:41;6.10;99.90
21666;DHT22;10994;45.486;9.190;2023-01-20T08:28:06;6.10;99.90
21666;DHT22;10994;45.486;9.190;2023-01-20T08:30:32;6.10;99.90
21666;DHT22;10994;45.486;9.190;2023-01-20T08:32:58;6.20;99.90
21666;DHT22;10994;45.486;9.190;2023-01-20T08:35:23;6.30;99.90
21666;DHT22;10994;45.486;9.190;2023-01-20T08:37:49;6.40;99.90
21666;DHT22;10994;45.486;9.190;2023-01-20T08:40:15;6.40;99.90
21666;DHT22;10994;45.486;9.190;2023-01-20T08:42:41;6.40;99.90
21666;DHT22;10994;45.486;9.190;2023-01-20T08:45:08;6.40;99.90
21666;DHT22;10994;45.486;9.190;2023-01-20T08:47:38;6.40;99.90
21666;DHT22;10994;45.486;9.190;2023-01-20T08:50:05;6.30;99.90
21666;DHT22;10994;45.486;9.190;2023-01-20T08:52:32;6.30;99.90
21666;DHT22;10994;45.486;9.190;2023-01-20T08:54:58;6.60;99.90
21666;DHT22;10994;45.486;9.190;2023-01-20T08:57:25;6.70;99.90
21666;DHT22;10994;45.486;9.190;2023-01-20T08:59:51;6.20;99.90
21666;DHT22;10994;45.486;9.190;2023-01-20T09:02:17;6.30;99.90
21666;DHT22;10994;45.486;9.190;2023-01-20T09:04:48;6.10;99.90
21666;DHT22;10994;45.486;9.190;2023-01-20T09:07:16;5.90;99.90
21666;DHT22;10994;45.486;9.190;2023-01-20T09:09:42;5.20;99.90
21666;DHT22;10994;45.486;9.190;2023-01-20T09:12:08;5.30;99.90
21666;DHT22;10994;45.486;9.190;2023-01-20T09:14:35;5.60;99.90
21666;DHT22;10994;45.486;9.190;2023-01-20T09:17:01;5.90;99.90
21666;DHT22;10994;45.486;9.190;2023-01-20T09:19:28;5.90;99.90
21666;DHT22;10994;45.486;9.190;2023-01-20T09:21:54;6.00;99.90
21666;DHT22;10994;45.486;9.190;2023-01-20T09:24:20;5.90;99.90
21666;DHT22;10994;45.486;9.190;2023-01-20T09:26:49;5.70;99.90
21666;DHT22;10994;45.486;9.190;2023-01-20T09:29:17;5.60;99.90
21666;DHT22;10994;45.486;9.190;2023-01-20T09:31:52;5.60;99.90
21666;DHT22;10994;45.486;9.190;2023-01-20T09:34:20;5.50;99.90
21666;DHT22;10994;45.486;9.190;2023-01-20T09:37:02;5.60;99.90
21666;DHT22;10994;45.486;9.190;2023-01-20T09:39:46;5.70;99.90
21666;DHT22;10994;45.486;9.190;2023-01-20T09:46:00;5.10;99.90
21666;DHT22;10994;45.486;9.190;2023-01-20T09:48:37;4.70;99.90
21666;DHT22;10994;45.486;9.190;2023-01-20T09:51:33;4.50;99.90
21666;DHT22;10994;45.486;9.190;2023-01-20T09:54:26;4.20;99.90
21666;DHT22;10994;45.486;9.190;2023-01-20T09:56:54;4.10;99.90
21666;DHT22;10994;45.486;9.190;2023-01-20T09:59:31;4.10;99.90
21666;DHT22;10994;45.486;9.190;2023-01-20T10:02:05;4.20;99.90
21666;DHT22;10994;45.486;9.190;2023-01-20T10:04:37;4.30;99.90
21666;DHT22;10994;45.486;9.190;2023-01-20T10:12:08;4.60;99.90
21666;DHT22;10994;45.486;9.190;2023-01-20T10:14:42;5.00;99.90
21666;DHT22;10994;45.486;9.190;2023-01-20T10:17:17;5.30;99.90
21666;DHT22;10994;45.486;9.190;2023-01-20T10:27:55;5.60;99.90
21666;DHT22;10994;45.486;9.190;2023-01-20T10:30:29;5.80;99.90
21666;DHT22;10994;45.486;9.190;2023-01-20T10:33:32;5.80;99.90
21666;DHT22;10994;45.486;9.190;2023-01-20T10:35:52;5.80;99.90
21666;DHT22;10994;45.486;9.190;2023-01-20T10:38:32;5.60;99.90
21666;DHT22;10994;45.486;9.190;2023-01-20T10:41:21;5.60;99.90
21666;DHT22;10994;45.486;9.190;2023-01-20T10:43:49;5.60;99.90
21666;DHT22;10994;45.486;9.190;2023-01-20T10:46:32;5.70;99.90
21666;DHT22;10994;45.486;9.190;2023-01-20T10:54:27;5.90;99.90
21666;DHT22;10994;45.486;9.190;2023-01-20T10:56:58;6.00;99.90
21666;DHT22;10994;45.486;9.190;2023-01-20T10:59:34;6.00;99.90
21666;DHT22;10994;45.486;9.190;2023-01-20T11:02:25;6.10;99.90
21666;DHT22;10994;45.486;9.190;2023-01-20T11:05:16;6.20;99.90
21666;DHT22;10994;45.486;9.190;2023-01-20T11:07:44;6.00;99.90
21666;DHT22;10994;45.486;9.190;2023-01-20T11:10:26;6.00;99.90
21666;DHT22;10994;45.486;9.190;2023-01-20T11:12:55;6.10;99.90
21666;DHT22;10994;45.486;9.190;2023-01-20T11:15:33;6.30;99.90
21666;DHT22;10994;45.486;9.190;2023-01-20T11:20:51;6.10;99.90
21666;DHT22;10994;45.486;9.190;2023-01-20T11:23:33;5.70;99.90
21666;DHT22;10994;45.486;9.190;2023-01-20T11:26:01;5.60;99.90
21666;DHT22;10994;45.486;9.190;2023-01-20T11:28:59;5.70;99.90
21666;DHT22;10994;45.486;9.190;2023-01-20T11:31:46;5.60;99.90
21666;DHT22;10994;45.486;9.190;2023-01-20T11:42:13;5.90;99.90
21666;DHT22;10994;45.486;9.190;2023-01-20T11:44:47;5.80;99.90
21666;DHT22;10994;45.486;9.190;2023-01-20T11:47:28;5.90;99.90
21666;DHT22;10994;45.486;9.190;2023-01-20T11:52:49;6.10;99.90
21666;DHT22;10994;45.486;9.190;2023-01-20T11:55:22;6.20;99.90
21666;DHT22;10994;45.486;9.190;2023-01-20T11:57:54;6.10;99.90
21666;DHT22;10994;45.486;9.190;2023-01-20T12:00:36;6.10;99.90
21666;DHT22;10994;45.486;9.190;2023-01-20T12:03:25;6.20;99.90
21666;DHT22;10994;45.486;9.190;2023-01-20T12:08:59;6.30;99.90
21666;DHT22;10994;45.486;9.190;2023-01-20T12:14:24;6.40;99.90
21666;DHT22;10994;45.486;9.190;2023-01-20T12:17:19;6.10;99.90
21666;DHT22;10994;45.486;9.190;2023-01-20T12:20:08;6.10;99.90
21666;DHT22;10994;45.486;9.190;2023-01-20T12:22:56;6.30;99.90
21666;DHT22;10994;45.486;9.190;2023-01-20T12:25:28;6.50;99.90
21666;DHT22;10994;45.486;9.190;2023-01-20T12:28:00;6.40;99.90
21666;DHT22;10994;45.486;9.190;2023-01-20T12:33:24;6.50;99.90
21666;DHT22;10994;45.486;9.190;2023-01-20T12:49:58;16.00;99.90
21666;DHT22;10994;45.486;9.190;2023-01-20T12:52:31;13.50;99.90
21666;DHT22;10994;45.486;9.190;2023-01-20T13:00:43;9.10;99.90
21666;DHT22;10994;45.486;9.190;2023-01-20T13:03:35;8.80;99.90
21666;DHT22;10994;45.486;9.190;2023-01-20T13:06:29;8.60;99.90
21666;DHT22;10994;45.486;9.190;2023-01-20T13:14:14;8.40;99.90
21666;DHT22;10994;45.486;9.190;2023-01-20T13:16:52;8.30;99.90
21666;DHT22;10994;45.486;9.190;2023-01-20T13:19:32;8.10;99.90
21666;DHT22;10994;45.486;9.190;2023-01-20T13:22:10;8.10;99.90
21666;DHT22;10994;45.486;9.190;2023-01-20T13:24:39;8.00;99.90
21666;DHT22;10994;45.486;9.190;2023-01-20T13:27:05;8.10;99.90
21666;DHT22;10994;45.486;9.190;2023-01-20T13:32:01;8.00;99.90
21666;DHT22;10994;45.486;9.190;2023-01-20T13:50:50;8.10;99.90
21666;DHT22;10994;45.486;9.190;2023-01-20T13:58:23;8.10;99.90
21666;DHT22;10994;45.486;9.190;2023-01-20T14:00:52;8.10;99.90
21666;DHT22;10994;45.486;9.190;2023-01-20T14:03:23;8.10;99.90
21666;DHT22;10994;45.486;9.190;2023-01-20T14:08:46;8.30;99.90
21666;DHT22;10994;45.486;9.190;2023-01-20T14:11:17;8.30;99.90
21666;DHT22;10994;45.486;9.190;2023-01-20T14:14:00;8.40;99.90
21666;DHT22;10994;45.486;9.190;2023-01-20T14:16:36;8.40;99.90
21666;DHT22;10994;45.486;9.190;2023-01-20T14:21:51;8.50;99.90
21666;DHT22;10994;45.486;9.190;2023-01-20T14:24:31;8.50;99.90
21666;DHT22;10994;45.486;9.190;2023-01-20T14:27:13;8.50;99.90
21666;DHT22;10994;45.486;9.190;2023-01-20T14:29:45;8.50;99.90
21666;DHT22;10994;45.486;9.190;2023-01-20T14:32:33;8.50;99.90
21666;DHT22;10994;45.486;9.190;2023-01-20T14:35:00;8.50;99.90
21666;DHT22;10994;45.486;9.190;2023-01-20T14:39:56;8.40;99.90
21666;DHT22;10994;45.486;9.190;2023-01-20T14:42:24;8.30;99.90
21666;DHT22;10994;45.486;9.190;2023-01-20T14:44:51;8.40;99.90
21666;DHT22;10994;45.486;9.190;2023-01-20T14:47:19;8.40;99.90
21666;DHT22;10994;45.486;9.190;2023-01-20T14:49:47;8.30;99.90
21666;DHT22;10994;45.486;9.190;2023-01-20T14:52:19;8.10;99.90
21666;DHT22;10994;45.486;9.190;2023-01-20T14:54:49;8.20;99.90
21666;DHT22;10994;45.486;9.190;2023-01-20T14:57:40;8.30;99.90
21666;DHT22;10994;45.486;9.190;2023-01-20T15:00:20;8.10;99.90
21666;DHT22;10994;45.486;9.190;2023-01-20T15:03:21;7.80;99.90
21666;DHT22;10994;45.486;9.190;2023-01-20T15:05:55;8.00;99.90
21666;DHT22;10994;45.486;9.190;2023-01-20T15:11:23;8.20;99.90
21666;DHT22;10994;45.486;9.190;2023-01-20T15:21:51;8.20;99.90
21666;DHT22;10994;45.486;9.190;2023-01-20T15:24:19;8.30;99.90
21666;DHT22;10994;45.486;9.190;2023-01-20T15:26:46;8.30;99.90
21666;DHT22;10994;45.486;9.190;2023-01-20T15:29:24;8.30;99.90
21666;DHT22;10994;45.486;9.190;2023-01-20T15:31:51;8.30;99.90
21666;DHT22;10994;45.486;9.190;2023-01-20T15:34:17;8.20;99.90
21666;DHT22;10994;45.486;9.190;2023-01-20T15:36:44;8.10;99.90
21666;DHT22;10994;45.486;9.190;2023-01-20T15:39:16;8.00;99.90
21666;DHT22;10994;45.486;9.190;2023-01-20T15:41:44;7.90;99.90
21666;DHT22;10994;45.486;9.190;2023-01-20T15:44:11;7.90;99.90
21666;DHT22;10994;45.486;9.190;2023-01-20T15:46:38;8.00;99.90
21666;DHT22;10994;45.486;9.190;2023-01-20T15:49:11;8.10;99.90
21666;DHT22;10994;45.486;9.190;2023-01-20T15:51:37;8.00;99.90
21666;DHT22;10994;45.486;9.190;2023-01-20T15:54:03;8.00;99.90
21666;DHT22;10994;45.486;9.190;2023-01-20T15:56:31;8.00;99.90
21666;DHT22;10994;45.486;9.190;2023-01-20T15:58:59;8.00;99.90
21666;DHT22;10994;45.486;9.190;2023-01-20T16:01:26;8.00;99.90
21666;DHT22;10994;45.486;9.190;2023-01-20T16:03:54;8.10;99.90
21666;DHT22;10994;45.486;9.190;2023-01-20T16:06:24;8.20;99.90
21666;DHT22;10994;45.486;9.190;2023-01-20T16:08:51;8.20;99.90
21666;DHT22;10994;45.486;9.190;2023-01-20T16:11:17;8.10;99.90
21666;DHT22;10994;45.486;9.190;2023-01-20T16:13:44;8.10;99.90
21666;DHT22;10994;45.486;9.190;2023-01-20T16:16:15;8.00;99.90
21666;DHT22;10994;45.486;9.190;2023-01-20T16:18:41;8.10;99.90
21666;DHT22;10994;45.486;9.190;2023-01-20T16:21:09;8.10;99.90
21666;DHT22;10994;45.486;9.190;2023-01-20T16:23:35;7.90;99.90
21666;DHT22;10994;45.486;9.190;2023-01-20T16:26:01;7.90;99.90
21666;DHT22;10994;45.486;9.190;2023-01-20T16:28:27;7.90;99.90
21666;DHT22;10994;45.486;9.190;2023-01-20T16:30:53;7.90;99.90
21666;DHT22;10994;45.486;9.190;2023-01-20T16:33:22;7.90;99.90
21666;DHT22;10994;45.486;9.190;2023-01-20T16:35:55;7.70;99.90
21666;DHT22;10994;45.486;9.190;2023-01-20T16:38:23;7.70;99.90
21666;DHT22;10994;45.486;9.190;2023-01-20T16:40:56;7.70;99.90
21666;DHT22;10994;45.486;9.190;2023-01-20T16:43:27;7.80;99.90
21666;DHT22;10994;45.486;9.190;2023-01-20T16:45:54;7.80;99.90
21666;DHT22;10994;45.486;9.190;2023-01-20T16:48:21;7.80;99.90
21666;DHT22;10994;45.486;9.190;2023-01-20T16:50:48;7.80;99.90
21666;DHT22;10994;45.486;9.190;2023-01-20T16:53:15;7.80;99.90
21666;DHT22;10994;45.486;9.190;2023-01-20T16:55:47;7.90;99.90
21666;DHT22;10994;45.486;9.190;2023-01-20T16:58:14;7.80;99.90
21666;DHT22;10994;45.486;9.190;2023-01-20T17:00:41;7.80;99.90
21666;DHT22;10994;45.486;9.190;2023-01-20T17:03:07;7.90;99.90
21666;DHT22;10994;45.486;9.190;2023-01-20T17:05:37;7.90;99.90
21666;DHT22;10994;45.486;9.190;2023-01-20T17:08:03;7.90;99.90
21666;DHT22;10994;45.486;9.190;2023-01-20T17:10:31;7.90;99.90
21666;DHT22;10994;45.486;9.190;2023-01-20T17:12:58;8.00;99.90
21666;DHT22;10994;45.486;9.190;2023-01-20T17:15:25;8.10;99.90
21666;DHT22;10994;45.486;9.190;2023-01-20T17:17:54;8.00;99.90
21666;DHT22;10994;45.486;9.190;2023-01-20T17:20:25;8.00;99.90
21666;DHT22;10994;45.486;9.190;2023-01-20T17:22:52;8.00;99.90
21666;DHT22;10994;45.486;9.190;2023-01-20T17:25:20;8.10;99.90
21666;DHT22;10994;45.486;9.190;2023-01-20T17:27:48;8.10;99.90
21666;DHT22;10994;45.486;9.190;2023-01-20T17:30:14;8.10;99.90
21666;DHT22;10994;45.486;9.190;2023-01-20T17:32:45;8.10;99.90
21666;DHT22;10994;45.486;9.190;2023-01-20T17:35:11;8.10;99.90
21666;DHT22;10994;45.486;9.190;2023-01-20T17:37:37;8.00;99.90
21666;DHT22;10994;45.486;9.190;2023-01-20T17:40:03;8.00;99.90
21666;DHT22;10994;45.486;9.190;2023-01-20T17:42:30;7.90;99.90
21666;DHT22;10994;45.486;9.190;2023-01-20T17:44:59;7.90;99.90
21666;DHT22;10994;45.486;9.190;2023-01-20T17:47:27;7.70;99.90
21666;DHT22;10994;45.486;9.190;2023-01-20T17:49:52;7.50;99.90
21666;DHT22;10994;45.486;9.190;2023-01-20T17:52:18;7.60;99.90
21666;DHT22;10994;45.486;9.190;2023-01-20T17:54:45;7.70;99.90
21666;DHT22;10994;45.486;9.190;2023-01-20T17:57:11;7.80;99.90
21666;DHT22;10994;45.486;9.190;2023-01-20T17:59:36;7.90;99.90
21666;DHT22;10994;45.486;9.190;2023-01-20T18:02:02;7.90;99.90
21666;DHT22;10994;45.486;9.190;2023-01-20T18:04:30;8.00;99.90
21666;DHT22;10994;45.486;9.190;2023-01-20T18:06:56;8.00;99.90
21666;DHT22;10994;45.486;9.190;2023-01-20T18:09:24;8.00;99.90
21666;DHT22;10994;45.486;9.190;2023-01-20T18:11:49;7.80;99.90
21666;DHT22;10994;45.486;9.190;2023-01-20T18:14:15;7.60;99.90
21666;DHT22;10994;45.486;9.190;2023-01-20T18:16:41;7.50;99.90
21666;DHT22;10994;45.486;9.190;2023-01-20T18:19:11;7.30;99.90
21666;DHT22;10994;45.486;9.190;2023-01-20T18:21:37;7.20;99.90
21666;DHT22;10994;45.486;9.190;2023-01-20T18:24:05;7.30;99.90
21666;DHT22;10994;45.486;9.190;2023-01-20T18:26:33;7.20;99.90
21666;DHT22;10994;45.486;9.190;2023-01-20T18:29:01;7.10;99.90
21666;DHT22;10994;45.486;9.190;2023-01-20T18:31:28;6.80;99.90
21666;DHT22;10994;45.486;9.190;2023-01-20T18:34:00;6.60;99.90
21666;DHT22;10994;45.486;9.190;2023-01-20T18:36:34;6.60;99.90